Time;durP1;ratioP1;P1;durP2;ratioP2;P2;SDS_P1;SDS_P2;PMS_P1;PMS_P2;Temp;Humidity;BMP_temperature;BMP_pressure;BME280_temperature;BME280_humidity;BME280_pressure;Samples;Min_cycle;Max_cycle;Signal;HPM_P1;HPM_P2
2023/01/19 00:01:39;;;;;;;3.80;2.60;;;;;;;;;;5069696;28;20208;-74
2023/01/19 00:04:06;;;;;;;1.50;1.40;;;;;;;;;;5068588;28;20213;-75
2023/01/19 00:06:33;;;;;;;3.27;1.17;;;;;;;;;;5066922;28;20624;-73
2023/01/19 00:09:00;;;;;;;3.93;2.50;;;;;;;;;;5065533;28;20210;-73
2023/01/19 00:11:28;;;;;;;4.97;1.63;;;;;;;;;;5068533;28;20621;-73
2023/01/19 00:13:57;;;;;;;1.67;1.57;;;;;;;;;;5068499;28;20229;-73
2023/01/19 00:16:24;;;;;;;2.03;1.70;;;;;;;;;;5070233;28;20280;-73
2023/01/19 00:18:52;;;;;;;2.70;1.93;;;;;;;;;;5071025;28;20204;-73
2023/01/19 00:21:20;;;;;;;3.90;1.77;;;;;;;;;;5065963;28;20619;-74
2023/01/19 00:23:47;;;;;;;2.13;1.50;;;;;;;;;;5069155;28;20205;-73
2023/01/19 00:26:16;;;;;;;4.73;1.93;;;;;;;;;;5067649;28;20209;-73
2023/01/19 00:28:44;;;;;;;2.60;1.50;;;;;;;;;;5067030;28;20953;-73
2023/01/19 00:31:14;;;;;;;1.73;1.57;;;;;;;;;;5067151;28;20940;-72
2023/01/19 00:33:41;;;;;;;2.37;1.63;;;;;;;;;;5069671;28;20226;-72
2023/01/19 00:36:09;;;;;;;7.30;1.83;;;;;;;;;;5064587;28;20265;-73
2023/01/19 00:38:37;;;;;;;1.53;1.43;;;;;;;;;;5071656;28;20267;-73
2023/01/19 00:41:04;;;;;;;1.33;1.27;;;;;;;;;;5070966;28;20217;-73
2023/01/19 00:43:31;;;;;;;3.23;1.73;;;;;;;;;;5076364;28;20206;-73
2023/01/19 00:46:00;;;;;;;2.57;1.60;;;;;;;;;;5083222;28;20205;-74
2023/01/19 00:48:27;;;;;;;1.80;1.50;;;;;;;;;;5077306;28;20542;-73
2023/01/19 00:50:54;;;;;;;1.57;1.47;;;;;;;;;;5071911;28;20834;-74
2023/01/19 00:53:21;;;;;;;1.50;1.40;;;;;;;;;;5079309;28;20269;-73
2023/01/19 00:55:48;;;;;;;2.80;1.73;;;;;;;;;;5077502;28;20233;-73
2023/01/19 00:58:15;;;;;;;6.13;2.20;;;;;;;;;;5064817;28;20261;-73
2023/01/19 01:00:43;;;;;;;1.13;1.10;;;;;;;;;;5065366;28;20271;-73
2023/01/19 01:03:11;;;;;;;2.13;1.77;;;;;;;;;;5068116;28;20304;-73
2023/01/19 01:05:41;;;;;;;1.50;1.40;;;;;;;;;;5068557;28;20205;-73
2023/01/19 01:08:08;;;;;;;0.83;0.83;;;;;;;;;;5068032;28;20742;-73
2023/01/19 01:10:35;;;;;;;2.03;1.97;;;;;;;;;;5066281;28;20610;-73
2023/01/19 01:13:02;;;;;;;1.73;1.47;;;;;;;;;;5068085;28;20231;-73
2023/01/19 01:15:29;;;;;;;1.77;1.67;;;;;;;;;;5068173;28;20285;-73
2023/01/19 01:17:56;;;;;;;3.93;1.40;;;;;;;;;;5067468;28;20300;-73
2023/01/19 01:20:26;;;;;;;1.73;1.57;;;;;;;;;;5066507;28;20300;-73
2023/01/19 01:22:53;;;;;;;1.03;0.90;;;;;;;;;;5068211;28;20506;-73
2023/01/19 01:25:22;;;;;;;3.40;2.10;;;;;;;;;;5066943;28;20206;-73
2023/01/19 01:27:49;;;;;;;1.43;1.33;;;;;;;;;;5071688;28;20774;-73
2023/01/19 01:30:17;;;;;;;2.43;1.83;;;;;;;;;;5064982;28;20332;-73
2023/01/19 01:32:44;;;;;;;2.50;1.30;;;;;;;;;;5069521;28;20268;-73
2023/01/19 01:35:11;;;;;;;1.93;1.27;;;;;;;;;;5067813;28;20202;-74
2023/01/19 01:37:41;;;;;;;1.63;1.53;;;;;;;;;;5066434;28;20678;-74
2023/01/19 01:40:10;;;;;;;0.70;0.70;;;;;;;;;;5063925;28;20271;-73
2023/01/19 01:42:39;;;;;;;4.07;2.50;;;;;;;;;;5064488;28;20754;-73
2023/01/19 01:45:08;;;;;;;4.60;1.50;;;;;;;;;;5064916;28;20209;-73
2023/01/19 01:47:37;;;;;;;1.30;1.20;;;;;;;;;;5064748;28;20213;-74
2023/01/19 01:50:07;;;;;;;0.83;0.83;;;;;;;;;;5065519;28;20204;-74
2023/01/19 01:52:35;;;;;;;1.33;1.27;;;;;;;;;;5067336;28;20238;-73
2023/01/19 01:55:06;;;;;;;1.47;1.37;;;;;;;;;;5064559;28;20294;-73
2023/01/19 01:57:35;;;;;;;3.70;1.87;;;;;;;;;;5067546;28;20262;-73
2023/01/19 02:00:02;;;;;;;3.60;1.27;;;;;;;;;;5061584;28;20208;-74
2023/01/19 02:05:17;;;;;;;2.07;1.63;;;;;;;;;;5065322;28;20211;-73
2023/01/19 02:13:22;;;;;;;5.60;1.77;;;;;;;;;;5069952;28;20681;-74
2023/01/19 02:15:49;;;;;;;4.10;1.87;;;;;;;;;;5066223;28;20255;-73
2023/01/19 02:18:16;;;;;;;1.53;1.47;;;;;;;;;;5068141;28;20527;-73
2023/01/19 02:20:46;;;;;;;2.83;1.70;;;;;;;;;;5067605;28;20319;-74
2023/01/19 02:23:17;;;;;;;2.67;1.77;;;;;;;;;;5067584;28;20257;-73
2023/01/19 02:25:46;;;;;;;2.60;1.63;;;;;;;;;;5067148;28;20713;-74
2023/01/19 02:28:13;;;;;;;1.87;1.60;;;;;;;;;;5067687;28;20215;-73
2023/01/19 02:30:41;;;;;;;5.63;2.00;;;;;;;;;;5066053;28;20207;-72
2023/01/19 02:33:08;;;;;;;2.40;1.33;;;;;;;;;;5066694;28;20232;-75
2023/01/19 02:35:38;;;;;;;1.63;1.47;;;;;;;;;;5068727;28;20589;-73
2023/01/19 02:38:05;;;;;;;1.93;1.43;;;;;;;;;;5054984;28;20217;-73
2023/01/19 02:40:33;;;;;;;1.37;1.23;;;;;;;;;;5067005;28;20242;-73
2023/01/19 02:43:03;;;;;;;1.40;1.23;;;;;;;;;;5068448;28;20214;-73
2023/01/19 02:45:30;;;;;;;2.17;1.40;;;;;;;;;;5065328;28;20209;-73
2023/01/19 02:47:57;;;;;;;3.10;1.20;;;;;;;;;;5068894;28;20212;-73
2023/01/19 02:50:40;;;;;;;1.17;1.17;;;;;;;;;;5067043;28;20216;-73
2023/01/19 02:53:13;;;;;;;2.30;1.57;;;;;;;;;;5067866;28;20273;-73
2023/01/19 02:55:40;;;;;;;2.87;1.43;;;;;;;;;;5066451;28;20244;-73
2023/01/19 02:58:12;;;;;;;1.97;1.87;;;;;;;;;;5082569;28;20204;-72
2023/01/19 03:00:43;;;;;;;0.93;0.93;;;;;;;;;;5070094;28;20222;-74
2023/01/19 03:03:16;;;;;;;1.73;1.27;;;;;;;;;;5085405;28;20215;-73
2023/01/19 03:05:55;;;;;;;2.10;1.90;;;;;;;;;;5070728;28;20233;-72
2023/01/19 03:08:27;;;;;;;2.47;1.17;;;;;;;;;;5086915;28;20205;-73
2023/01/19 03:10:58;;;;;;;2.97;1.50;;;;;;;;;;5076275;28;20209;-73
2023/01/19 03:13:30;;;;;;;1.30;1.23;;;;;;;;;;5082733;28;20256;-72
2023/01/19 03:15:58;;;;;;;1.03;0.93;;;;;;;;;;5071748;28;20651;-73
2023/01/19 03:18:27;;;;;;;4.27;2.10;;;;;;;;;;5071041;28;20302;-71
2023/01/19 03:20:56;;;;;;;2.33;1.30;;;;;;;;;;5069631;28;20208;-72
2023/01/19 03:23:25;;;;;;;2.27;1.80;;;;;;;;;;5070711;28;20205;-72
2023/01/19 03:25:53;;;;;;;1.13;1.13;;;;;;;;;;5070263;28;20216;-74
2023/01/19 03:28:21;;;;;;;1.53;1.07;;;;;;;;;;5070753;28;20336;-74
2023/01/19 03:30:53;;;;;;;2.77;1.20;;;;;;;;;;5070865;28;20221;-74
2023/01/19 03:33:24;;;;;;;1.50;1.40;;;;;;;;;;5082866;28;20834;-73
2023/01/19 03:35:54;;;;;;;5.37;1.20;;;;;;;;;;5070380;28;20201;-73
2023/01/19 03:38:25;;;;;;;1.63;1.53;;;;;;;;;;5083311;28;20201;-72
2023/01/19 03:40:53;;;;;;;1.87;1.60;;;;;;;;;;5078976;28;20205;-71
2023/01/19 03:43:20;;;;;;;2.10;1.70;;;;;;;;;;5055275;28;20584;-71
2023/01/19 03:45:47;;;;;;;1.50;1.40;;;;;;;;;;5065317;28;20639;-72
2023/01/19 03:48:16;;;;;;;1.70;1.53;;;;;;;;;;5070615;28;20224;-72
2023/01/19 03:50:43;;;;;;;1.83;1.73;;;;;;;;;;5068253;28;20207;-72
2023/01/19 03:53:11;;;;;;;2.77;1.80;;;;;;;;;;5069424;28;20244;-72
2023/01/19 03:55:41;;;;;;;2.40;2.00;;;;;;;;;;5071225;28;20333;-72
2023/01/19 03:58:08;;;;;;;1.67;1.33;;;;;;;;;;5070217;28;20276;-72
2023/01/19 04:00:36;;;;;;;5.07;1.70;;;;;;;;;;5069627;28;20217;-72
2023/01/19 04:03:03;;;;;;;1.70;1.60;;;;;;;;;;5068748;28;20380;-72
2023/01/19 04:05:32;;;;;;;1.43;1.33;;;;;;;;;;5070275;28;20723;-73
2023/01/19 04:07:59;;;;;;;1.80;1.70;;;;;;;;;;5090114;28;20228;-73
2023/01/19 04:10:26;;;;;;;5.10;2.23;;;;;;;;;;5076057;28;20676;-72
2023/01/19 04:12:57;;;;;;;1.87;1.70;;;;;;;;;;5069428;28;20237;-72
2023/01/19 04:15:24;;;;;;;2.23;2.03;;;;;;;;;;5064302;28;20332;-73
2023/01/19 04:17:51;;;;;;;1.43;1.43;;;;;;;;;;5075870;28;20273;-74
2023/01/19 04:20:18;;;;;;;4.13;1.27;;;;;;;;;;5069504;28;20229;-73
2023/01/19 04:22:47;;;;;;;1.77;1.60;;;;;;;;;;5068710;28;21995;-73
2023/01/19 04:25:15;;;;;;;2.20;1.67;;;;;;;;;;5069086;28;20204;-73
2023/01/19 04:27:42;;;;;;;1.53;1.27;;;;;;;;;;5089217;28;20226;-73
2023/01/19 04:30:09;;;;;;;4.20;3.27;;;;;;;;;;5079304;28;20220;-73
2023/01/19 04:32:37;;;;;;;2.67;2.13;;;;;;;;;;5079137;28;20303;-73
2023/01/19 04:35:04;;;;;;;6.07;1.97;;;;;;;;;;5073855;28;20289;-74
2023/01/19 04:37:31;;;;;;;4.67;2.20;;;;;;;;;;5068314;28;20666;-74
2023/01/19 04:39:59;;;;;;;2.43;1.60;;;;;;;;;;5066207;28;20210;-73
2023/01/19 04:42:26;;;;;;;1.87;1.77;;;;;;;;;;5070263;28;20205;-73
2023/01/19 04:44:53;;;;;;;1.73;1.63;;;;;;;;;;5068498;28;20629;-73
2023/01/19 04:47:20;;;;;;;2.30;2.00;;;;;;;;;;5072458;28;20211;-73
2023/01/19 04:49:47;;;;;;;5.50;2.63;;;;;;;;;;5074949;28;20218;-73
2023/01/19 04:52:14;;;;;;;1.13;1.13;;;;;;;;;;5068076;28;20222;-73
2023/01/19 04:54:41;;;;;;;3.20;2.20;;;;;;;;;;5066521;28;20370;-73
2023/01/19 04:57:10;;;;;;;2.60;2.17;;;;;;;;;;5073730;28;20267;-73
2023/01/19 04:59:37;;;;;;;2.13;1.50;;;;;;;;;;5084566;28;20267;-73
2023/01/19 05:02:04;;;;;;;1.63;1.27;;;;;;;;;;5066567;28;20592;-73
2023/01/19 05:04:31;;;;;;;0.77;0.60;;;;;;;;;;5067788;28;20206;-73
2023/01/19 05:06:58;;;;;;;3.70;1.87;;;;;;;;;;5071231;28;20217;-73
2023/01/19 05:09:25;;;;;;;6.07;2.63;;;;;;;;;;5086865;28;20221;-73
2023/01/19 05:11:52;;;;;;;3.43;1.83;;;;;;;;;;5067980;28;20790;-74
2023/01/19 05:14:21;;;;;;;2.53;1.60;;;;;;;;;;5068215;28;20234;-73
2023/01/19 05:16:48;;;;;;;2.00;1.83;;;;;;;;;;5067265;28;20247;-73
2023/01/19 05:19:15;;;;;;;1.97;1.87;;;;;;;;;;5068554;28;20218;-72
2023/01/19 05:21:42;;;;;;;2.47;1.70;;;;;;;;;;5067693;28;20818;-72
2023/01/19 05:24:09;;;;;;;2.50;2.00;;;;;;;;;;5075875;28;20551;-72
2023/01/19 05:26:36;;;;;;;2.67;1.83;;;;;;;;;;5067419;28;20267;-73
2023/01/19 05:29:03;;;;;;;5.93;2.37;;;;;;;;;;5073944;28;20202;-72
2023/01/19 05:31:31;;;;;;;2.70;2.30;;;;;;;;;;5068338;28;20633;-72
2023/01/19 05:33:58;;;;;;;3.03;2.10;;;;;;;;;;5067740;28;20239;-73
2023/01/19 05:36:26;;;;;;;2.30;2.20;;;;;;;;;;5068104;28;20210;-73
2023/01/19 05:38:53;;;;;;;4.77;2.63;;;;;;;;;;5070169;28;20259;-73
2023/01/19 05:41:20;;;;;;;2.13;2.03;;;;;;;;;;5067093;28;20268;-73
2023/01/19 05:43:47;;;;;;;4.37;3.20;;;;;;;;;;5069906;28;20279;-72
2023/01/19 05:46:14;;;;;;;2.13;2.03;;;;;;;;;;5088429;28;20316;-72
2023/01/19 05:48:42;;;;;;;3.23;2.77;;;;;;;;;;5084315;28;20213;-72
2023/01/19 05:51:09;;;;;;;4.80;2.27;;;;;;;;;;5068226;28;20221;-72
2023/01/19 05:53:36;;;;;;;4.37;2.23;;;;;;;;;;5068096;28;20207;-73
2023/01/19 05:56:04;;;;;;;3.07;2.87;;;;;;;;;;5071010;28;20225;-73
2023/01/19 05:58:33;;;;;;;1.43;1.30;;;;;;;;;;5080654;28;20213;-70
2023/01/19 06:01:04;;;;;;;4.77;2.23;;;;;;;;;;5067537;28;20206;-74
2023/01/19 06:03:31;;;;;;;5.27;2.87;;;;;;;;;;5067269;28;20224;-72
2023/01/19 06:05:59;;;;;;;4.33;3.17;;;;;;;;;;5069413;28;20199;-73
2023/01/19 06:08:26;;;;;;;3.93;1.93;;;;;;;;;;5066745;28;20202;-75
2023/01/19 06:10:53;;;;;;;2.57;2.37;;;;;;;;;;5066932;28;20272;-75
2023/01/19 06:13:20;;;;;;;2.30;2.20;;;;;;;;;;5066932;28;20277;-74
2023/01/19 06:15:47;;;;;;;2.53;2.30;;;;;;;;;;5066995;28;20231;-73
2023/01/19 06:18:15;;;;;;;2.50;2.30;;;;;;;;;;5067441;28;20211;-75
2023/01/19 06:20:42;;;;;;;2.73;2.53;;;;;;;;;;5066527;28;20214;-74
2023/01/19 06:23:10;;;;;;;4.43;3.23;;;;;;;;;;5067378;28;20230;-75
2023/01/19 06:25:38;;;;;;;5.30;2.47;;;;;;;;;;5067088;28;20211;-75
2023/01/19 06:28:05;;;;;;;2.53;2.13;;;;;;;;;;5067160;28;20244;-75
2023/01/19 06:30:32;;;;;;;2.70;2.50;;;;;;;;;;5066943;28;20302;-75
2023/01/19 06:32:59;;;;;;;3.07;2.87;;;;;;;;;;5066638;28;20579;-74
2023/01/19 06:35:26;;;;;;;4.90;3.17;;;;;;;;;;5070811;28;20227;-74
2023/01/19 06:37:53;;;;;;;2.10;1.90;;;;;;;;;;5071013;28;20199;-74
2023/01/19 06:40:21;;;;;;;9.50;3.80;;;;;;;;;;5085337;28;20214;-74
2023/01/19 06:42:49;;;;;;;3.07;2.13;;;;;;;;;;5087966;28;20207;-74
2023/01/19 06:45:16;;;;;;;4.60;3.23;;;;;;;;;;5084753;28;20635;-74
2023/01/19 06:47:43;;;;;;;4.00;3.07;;;;;;;;;;5070351;28;20760;-74
2023/01/19 06:50:11;;;;;;;3.50;2.90;;;;;;;;;;5070390;28;20211;-74
2023/01/19 06:52:41;;;;;;;4.33;3.10;;;;;;;;;;5083398;28;20248;-73
2023/01/19 06:57:58;;;;;;;3.33;2.53;;;;;;;;;;5054409;23;20623;-73
2023/01/19 07:00:25;;;;;;;4.20;2.97;;;;;;;;;;5050482;28;20299;-73
2023/01/19 07:02:53;;;;;;;5.87;2.70;;;;;;;;;;5049698;28;20261;-73
2023/01/19 07:05:20;;;;;;;4.73;3.23;;;;;;;;;;5049934;28;20211;-73
2023/01/19 07:07:51;;;;;;;3.63;3.20;;;;;;;;;;5049698;28;20238;-73
2023/01/19 07:10:18;;;;;;;3.03;2.80;;;;;;;;;;5050449;28;20207;-73
2023/01/19 07:12:46;;;;;;;3.13;2.83;;;;;;;;;;5050098;28;20208;-73
2023/01/19 07:15:15;;;;;;;2.27;2.07;;;;;;;;;;5049403;28;20301;-73
2023/01/19 07:17:42;;;;;;;4.83;2.57;;;;;;;;;;5050402;28;20374;-74
2023/01/19 07:20:10;;;;;;;4.23;2.73;;;;;;;;;;5050012;28;20242;-70
2023/01/19 07:22:37;;;;;;;7.50;3.00;;;;;;;;;;5049416;28;20349;-74
2023/01/19 07:25:04;;;;;;;4.27;3.30;;;;;;;;;;5050082;28;20886;-73
2023/01/19 07:27:31;;;;;;;3.20;2.90;;;;;;;;;;5048874;28;20262;-73
2023/01/19 07:29:59;;;;;;;3.47;3.17;;;;;;;;;;5049867;28;20211;-73
2023/01/19 07:32:28;;;;;;;3.23;2.93;;;;;;;;;;5050427;28;20675;-72
2023/01/19 07:34:55;;;;;;;4.10;2.60;;;;;;;;;;5050046;28;20280;-72
2023/01/19 07:37:22;;;;;;;6.60;3.47;;;;;;;;;;5049852;28;20215;-74
2023/01/19 07:39:50;;;;;;;4.00;1.90;;;;;;;;;;5049149;28;20219;-73
2023/01/19 07:42:17;;;;;;;3.30;3.03;;;;;;;;;;5049614;28;20301;-73
2023/01/19 07:44:44;;;;;;;4.40;2.50;;;;;;;;;;5049525;28;20820;-74
2023/01/19 07:47:14;;;;;;;3.20;2.23;;;;;;;;;;5050350;28;20215;-75
2023/01/19 07:49:43;;;;;;;3.07;2.50;;;;;;;;;;5051842;28;20208;-73
2023/01/19 07:52:11;;;;;;;2.83;2.33;;;;;;;;;;5052157;28;20254;-73
2023/01/19 07:54:38;;;;;;;4.03;3.10;;;;;;;;;;5050363;28;20258;-75
2023/01/19 07:57:06;;;;;;;5.27;3.20;;;;;;;;;;5051490;28;20715;-73
2023/01/19 07:59:33;;;;;;;7.93;3.30;;;;;;;;;;5049882;28;20240;-74
2023/01/19 08:02:01;;;;;;;4.20;3.50;;;;;;;;;;5051519;28;20205;-74
2023/01/19 08:04:28;;;;;;;4.33;2.07;;;;;;;;;;5048938;28;20216;-73
2023/01/19 08:06:57;;;;;;;5.33;3.03;;;;;;;;;;5049370;28;20207;-77
2023/01/19 08:09:24;;;;;;;1.93;1.83;;;;;;;;;;5049174;28;20901;-72
2023/01/19 08:11:51;;;;;;;4.40;3.17;;;;;;;;;;5050162;28;20211;-74
2023/01/19 08:14:18;;;;;;;6.60;2.87;;;;;;;;;;5029204;28;20212;-74
2023/01/19 08:16:45;;;;;;;4.93;2.73;;;;;;;;;;5029548;28;20228;-74
2023/01/19 08:19:12;;;;;;;5.17;2.33;;;;;;;;;;5047825;28;20212;-74
2023/01/19 08:21:40;;;;;;;3.57;2.83;;;;;;;;;;5051757;28;20735;-73
2023/01/19 08:24:17;;;;;;;5.80;3.73;;;;;;;;;;5049881;28;20218;-74
2023/01/19 08:26:44;;;;;;;6.17;3.03;;;;;;;;;;5048147;28;20213;-74
2023/01/19 08:29:11;;;;;;;7.33;3.63;;;;;;;;;;5047720;28;20269;-75
2023/01/19 08:31:38;;;;;;;3.23;2.87;;;;;;;;;;5044037;28;20273;-75
2023/01/19 08:34:06;;;;;;;10.53;6.27;;;;;;;;;;5048194;28;20211;-76
2023/01/19 08:36:33;;;;;;;6.77;3.27;;;;;;;;;;5047658;28;20224;-76
2023/01/19 08:39:00;;;;;;;3.27;2.47;;;;;;;;;;5043648;28;20238;-76
2023/01/19 08:41:28;;;;;;;3.90;3.60;;;;;;;;;;5047794;28;20617;-77
2023/01/19 08:43:55;;;;;;;4.07;3.30;;;;;;;;;;5047704;28;20278;-74
2023/01/19 08:46:22;;;;;;;6.60;3.73;;;;;;;;;;5047880;28;20614;-74
2023/01/19 08:48:49;;;;;;;2.87;2.43;;;;;;;;;;5047955;28;20225;-78
2023/01/19 08:51:17;;;;;;;7.03;3.97;;;;;;;;;;5036361;28;20208;-75
2023/01/19 08:53:44;;;;;;;6.83;4.87;;;;;;;;;;5038192;28;20628;-72
2023/01/19 08:56:12;;;;;;;3.80;3.53;;;;;;;;;;5046263;28;20236;-70
2023/01/19 08:58:41;;;;;;;8.00;4.23;;;;;;;;;;5046071;28;20222;-70
2023/01/19 09:01:08;;;;;;;9.63;5.37;;;;;;;;;;5027881;28;20209;-70
2023/01/19 09:03:35;;;;;;;7.23;4.13;;;;;;;;;;5028822;28;20214;-73
2023/01/19 09:06:02;;;;;;;4.50;3.07;;;;;;;;;;5028386;28;20234;-69
2023/01/19 09:08:29;;;;;;;6.87;4.30;;;;;;;;;;5040311;28;20673;-68
2023/01/19 09:10:56;;;;;;;6.10;3.53;;;;;;;;;;5048034;28;20213;-69
2023/01/19 09:13:23;;;;;;;13.30;5.13;;;;;;;;;;5047472;28;20261;-75
2023/01/19 09:15:52;;;;;;;8.60;3.93;;;;;;;;;;5047562;28;20723;-79
2023/01/19 09:18:20;;;;;;;4.57;3.97;;;;;;;;;;5046578;28;20233;-75
2023/01/19 09:20:48;;;;;;;9.93;6.03;;;;;;;;;;5046481;28;20444;-74
2023/01/19 09:23:16;;;;;;;11.80;5.77;;;;;;;;;;5047952;28;20674;-75
2023/01/19 09:25:43;;;;;;;12.17;6.53;;;;;;;;;;5048098;28;20204;-76
2023/01/19 09:28:11;;;;;;;6.80;5.30;;;;;;;;;;5046146;28;20655;-75
2023/01/19 09:30:46;;;;;;;3.57;3.23;;;;;;;;;;5040347;28;20204;-75
2023/01/19 09:33:15;;;;;;;10.17;4.90;;;;;;;;;;5041999;28;20257;-75
2023/01/19 09:35:43;;;;;;;8.93;4.50;;;;;;;;;;5044229;28;20257;-75
2023/01/19 09:38:11;;;;;;;5.93;3.80;;;;;;;;;;5044579;28;20207;-74
2023/01/19 09:40:41;;;;;;;4.50;3.67;;;;;;;;;;5046529;28;20215;-75
2023/01/19 09:43:13;;;;;;;5.83;4.27;;;;;;;;;;5046392;28;20222;-74
2023/01/19 09:45:44;;;;;;;4.80;4.03;;;;;;;;;;5046796;28;20983;-74
2023/01/19 09:48:16;;;;;;;10.40;3.90;;;;;;;;;;5045817;28;20218;-74
2023/01/19 09:50:47;;;;;;;3.80;3.17;;;;;;;;;;5046868;28;20225;-75
2023/01/19 09:53:17;;;;;;;3.93;3.23;;;;;;;;;;5046257;28;20659;-75
2023/01/19 09:55:44;;;;;;;6.33;3.17;;;;;;;;;;5044164;28;20235;-75
2023/01/19 09:58:14;;;;;;;4.27;2.70;;;;;;;;;;5046073;28;20204;-75
2023/01/19 10:00:41;;;;;;;4.43;3.33;;;;;;;;;;5046598;28;20580;-75
2023/01/19 10:03:13;;;;;;;5.70;3.63;;;;;;;;;;5045811;28;20218;-75
2023/01/19 10:05:43;;;;;;;6.97;2.93;;;;;;;;;;5032436;28;20604;-73
2023/01/19 10:08:17;;;;;;;4.33;3.20;;;;;;;;;;5044636;28;20219;-74
2023/01/19 10:10:47;;;;;;;3.60;3.27;;;;;;;;;;5045598;28;20233;-75
2023/01/19 10:13:19;;;;;;;4.23;3.43;;;;;;;;;;5042803;28;20237;-76
2023/01/19 10:15:51;;;;;;;3.53;2.70;;;;;;;;;;5045699;28;20216;-76
2023/01/19 10:18:19;;;;;;;2.93;2.63;;;;;;;;;;5045832;28;20221;-74
2023/01/19 10:20:49;;;;;;;6.30;2.63;;;;;;;;;;5046276;28;20497;-75
2023/01/19 10:23:35;;;;;;;2.70;2.50;;;;;;;;;;5044648;28;20199;-75
2023/01/19 10:26:06;;;;;;;5.57;2.73;;;;;;;;;;5045153;28;20204;-75
2023/01/19 10:28:33;;;;;;;3.40;2.57;;;;;;;;;;5045520;28;20504;-75
2023/01/19 10:31:01;;;;;;;4.10;3.00;;;;;;;;;;5045383;28;20768;-75
2023/01/19 10:33:34;;;;;;;2.83;2.57;;;;;;;;;;5045571;28;20216;-74
2023/01/19 10:36:03;;;;;;;4.70;3.00;;;;;;;;;;5046073;28;20219;-73
2023/01/19 10:38:33;;;;;;;2.73;2.57;;;;;;;;;;5044420;28;20585;-75
2023/01/19 10:41:03;;;;;;;3.07;2.47;;;;;;;;;;5045839;28;20679;-81
2023/01/19 10:43:37;;;;;;;4.13;2.60;;;;;;;;;;5042950;28;20200;-73
2023/01/19 10:46:06;;;;;;;3.00;2.30;;;;;;;;;;5044672;28;20758;-73
2023/01/19 10:48:37;;;;;;;3.60;2.60;;;;;;;;;;5045009;28;20253;-73
2023/01/19 10:51:05;;;;;;;6.67;2.57;;;;;;;;;;5044836;28;20585;-73
2023/01/19 10:53:33;;;;;;;3.47;2.13;;;;;;;;;;5035634;28;20227;-74
2023/01/19 10:56:12;;;;;;;2.80;2.30;;;;;;;;;;5034699;28;20298;-73
2023/01/19 10:58:39;;;;;;;2.20;2.10;;;;;;;;;;5044828;28;20227;-71
2023/01/19 11:01:13;;;;;;;3.43;3.13;;;;;;;;;;5045135;28;20868;-74
2023/01/19 11:03:40;;;;;;;3.77;2.97;;;;;;;;;;5045238;28;20269;-75
2023/01/19 11:06:19;;;;;;;2.63;2.43;;;;;;;;;;5036517;28;20200;-74
2023/01/19 11:08:50;;;;;;;6.93;2.73;;;;;;;;;;5027011;28;20212;-75
2023/01/19 11:11:18;;;;;;;2.07;1.97;;;;;;;;;;5043080;28;20264;-74
2023/01/19 11:13:45;;;;;;;5.80;2.43;;;;;;;;;;5046689;28;20220;-77
2023/01/19 11:16:16;;;;;;;2.20;2.10;;;;;;;;;;5041988;28;20285;-75
2023/01/19 11:18:44;;;;;;;5.93;3.30;;;;;;;;;;5044217;28;20355;-74
2023/01/19 11:21:13;;;;;;;4.60;2.87;;;;;;;;;;5054093;28;20214;-74
2023/01/19 11:23:43;;;;;;;7.20;3.23;;;;;;;;;;5055274;28;20203;-75
2023/01/19 11:26:15;;;;;;;3.43;2.80;;;;;;;;;;5057400;28;20205;-76
2023/01/19 11:28:46;;;;;;;3.03;2.67;;;;;;;;;;5055773;28;20215;-75
2023/01/19 11:31:19;;;;;;;3.03;2.70;;;;;;;;;;5053299;28;20215;-74
2023/01/19 11:33:49;;;;;;;3.57;2.20;;;;;;;;;;5052553;28;20317;-76
2023/01/19 11:36:19;;;;;;;3.57;2.33;;;;;;;;;;5050318;28;20239;-76
2023/01/19 11:38:49;;;;;;;7.07;2.00;;;;;;;;;;5049802;28;20533;-77
2023/01/19 11:41:19;;;;;;;2.30;1.87;;;;;;;;;;5049483;28;20221;-72
2023/01/19 11:43:46;;;;;;;9.53;3.37;;;;;;;;;;5049613;28;20262;-73
2023/01/19 11:46:13;;;;;;;5.90;2.30;;;;;;;;;;5049444;28;20199;-70
2023/01/19 11:48:43;;;;;;;7.90;2.73;;;;;;;;;;5048580;28;20211;-74
2023/01/19 11:51:13;;;;;;;9.77;2.17;;;;;;;;;;5049403;28;20363;-74
2023/01/19 11:53:41;;;;;;;2.00;1.90;;;;;;;;;;5046052;28;20204;-77
2023/01/19 11:56:10;;;;;;;3.90;2.03;;;;;;;;;;5047907;28;20729;-72
2023/01/19 11:58:40;;;;;;;1.73;1.63;;;;;;;;;;5049773;28;20203;-76
2023/01/19 12:01:13;;;;;;;1.67;1.33;;;;;;;;;;5049734;28;20799;-75
2023/01/19 12:03:42;;;;;;;2.53;1.90;;;;;;;;;;5048704;28;20215;-76
2023/01/19 12:06:11;;;;;;;1.60;1.50;;;;;;;;;;5048568;28;20253;-75
2023/01/19 12:08:41;;;;;;;2.53;1.70;;;;;;;;;;5049376;28;20639;-75
2023/01/19 12:11:10;;;;;;;1.93;1.77;;;;;;;;;;5047242;28;20217;-73
2023/01/19 12:13:40;;;;;;;6.50;1.57;;;;;;;;;;5052460;28;20214;-74
2023/01/19 12:16:09;;;;;;;1.63;1.53;;;;;;;;;;5048927;28;20231;-74
2023/01/19 12:18:37;;;;;;;5.97;1.83;;;;;;;;;;5045675;28;20218;-70
2023/01/19 12:21:04;;;;;;;1.80;1.40;;;;;;;;;;5045763;28;20241;-73
2023/01/19 12:23:44;;;;;;;1.70;1.60;;;;;;;;;;5043973;28;20211;-75
2023/01/19 12:26:33;;;;;;;1.83;1.43;;;;;;;;;;5058363;28;20248;-73
2023/01/19 12:29:06;;;;;;;1.50;1.40;;;;;;;;;;5040910;28;20583;-73
2023/01/19 12:31:33;;;;;;;1.37;1.37;;;;;;;;;;5046573;28;20214;-73
2023/01/19 12:34:15;;;;;;;1.70;1.60;;;;;;;;;;5042817;28;20207;-76
2023/01/19 12:36:42;;;;;;;2.77;1.40;;;;;;;;;;5046681;28;20284;-76
2023/01/19 12:39:17;;;;;;;1.20;1.20;;;;;;;;;;5039181;28;20208;-74
2023/01/19 12:41:45;;;;;;;2.10;1.90;;;;;;;;;;5047708;28;20207;-73
2023/01/19 12:44:32;;;;;;;1.27;1.27;;;;;;;;;;5047079;28;20211;-74
2023/01/19 12:47:05;;;;;;;1.63;1.37;;;;;;;;;;5047006;28;20209;-74
2023/01/19 12:49:34;;;;;;;1.73;1.07;;;;;;;;;;5047884;28;20306;-74
2023/01/19 12:52:19;;;;;;;2.63;1.80;;;;;;;;;;5047129;28;20276;-74
2023/01/19 12:54:53;;;;;;;2.13;1.87;;;;;;;;;;5046025;28;20211;-74
2023/01/19 12:57:21;;;;;;;3.17;1.40;;;;;;;;;;5047297;28;20723;-74
2023/01/19 12:59:55;;;;;;;4.23;1.30;;;;;;;;;;5047923;28;20213;-73
2023/01/19 13:02:43;;;;;;;2.77;2.03;;;;;;;;;;5048197;28;20232;-74
2023/01/19 13:05:12;;;;;;;7.07;1.93;;;;;;;;;;5048075;28;20225;-74
2023/01/19 13:08:10;;;;;;;1.70;1.40;;;;;;;;;;5048273;28;20762;-73
2023/01/19 13:10:55;;;;;;;2.10;1.43;;;;;;;;;;4964079;28;20206;-73
2023/01/19 13:13:23;;;;;;;2.10;2.00;;;;;;;;;;5039935;28;20211;-73
2023/01/19 13:15:50;;;;;;;2.03;1.93;;;;;;;;;;5048176;28;20266;-72
2023/01/19 13:18:20;;;;;;;2.50;1.60;;;;;;;;;;5047670;28;20948;-73
2023/01/19 13:20:50;;;;;;;2.47;1.93;;;;;;;;;;5045749;28;20276;-74
2023/01/19 13:23:18;;;;;;;1.80;1.70;;;;;;;;;;5037620;28;20207;-73
2023/01/19 13:25:48;;;;;;;1.47;1.33;;;;;;;;;;5043807;28;20213;-74
2023/01/19 13:28:17;;;;;;;2.00;1.90;;;;;;;;;;5044428;28;20675;-74
2023/01/19 13:30:51;;;;;;;2.00;1.90;;;;;;;;;;5044266;28;20214;-74
2023/01/19 13:33:21;;;;;;;4.40;2.00;;;;;;;;;;5041948;28;20264;-75
2023/01/19 13:35:51;;;;;;;2.03;1.60;;;;;;;;;;5043488;28;20214;-74
2023/01/19 13:38:19;;;;;;;1.90;1.67;;;;;;;;;;5045666;28;20287;-75
2023/01/19 13:40:46;;;;;;;1.80;1.70;;;;;;;;;;5040297;28;20230;-75
2023/01/19 13:43:16;;;;;;;1.23;1.23;;;;;;;;;;5040042;28;20258;-74
2023/01/19 13:45:46;;;;;;;6.20;2.00;;;;;;;;;;5043108;28;20219;-74
2023/01/19 13:48:16;;;;;;;9.77;3.10;;;;;;;;;;5046557;28;20203;-74
2023/01/19 13:50:56;;;;;;;2.17;2.00;;;;;;;;;;5045511;28;20242;-75
2023/01/19 13:53:23;;;;;;;3.70;1.13;;;;;;;;;;5032104;28;20260;-75
2023/01/19 13:56:05;;;;;;;1.57;1.50;;;;;;;;;;5044772;28;20314;-74
2023/01/19 13:58:32;;;;;;;1.87;1.53;;;;;;;;;;5034302;28;20238;-74
2023/01/19 14:00:59;;;;;;;1.67;1.57;;;;;;;;;;5043620;28;20686;-75
2023/01/19 14:03:26;;;;;;;1.77;1.47;;;;;;;;;;5042302;28;20220;-74
2023/01/19 14:05:55;;;;;;;4.13;2.03;;;;;;;;;;5042613;28;20674;-74
2023/01/19 14:08:24;;;;;;;2.00;1.40;;;;;;;;;;5046204;28;21024;-75
2023/01/19 14:11:01;;;;;;;2.10;1.90;;;;;;;;;;5042785;28;20300;-75
2023/01/19 14:13:29;;;;;;;1.70;1.60;;;;;;;;;;5027362;28;20244;-75
2023/01/19 14:15:57;;;;;;;2.30;2.13;;;;;;;;;;5029811;28;20340;-75
2023/01/19 14:18:26;;;;;;;2.30;1.77;;;;;;;;;;5046677;28;20755;-75
2023/01/19 14:21:00;;;;;;;1.57;1.47;;;;;;;;;;5045350;28;20219;-75
2023/01/19 14:23:38;;;;;;;1.23;1.17;;;;;;;;;;5046004;28;20227;-75
2023/01/19 14:26:05;;;;;;;1.90;1.80;;;;;;;;;;5038082;28;20219;-76
2023/01/19 14:28:38;;;;;;;1.80;1.70;;;;;;;;;;5046553;28;20203;-76
2023/01/19 14:31:19;;;;;;;2.03;1.93;;;;;;;;;;5044991;28;20208;-76
2023/01/19 14:33:47;;;;;;;2.00;1.90;;;;;;;;;;5047134;28;20208;-72
2023/01/19 14:36:25;;;;;;;2.17;2.00;;;;;;;;;;5046516;28;20211;-81
2023/01/19 14:38:53;;;;;;;2.50;2.30;;;;;;;;;;5044240;28;20270;-82
2023/01/19 14:41:24;;;;;;;2.03;1.87;;;;;;;;;;5045353;28;20213;-76
2023/01/19 14:43:51;;;;;;;1.97;1.83;;;;;;;;;;5046086;28;20253;-75
2023/01/19 14:46:18;;;;;;;2.97;1.80;;;;;;;;;;5045665;28;20219;-75
2023/01/19 14:48:46;;;;;;;2.13;1.50;;;;;;;;;;5044434;28;20203;-78
2023/01/19 14:51:17;;;;;;;3.70;2.13;;;;;;;;;;5026580;28;20585;-78
2023/01/19 14:53:48;;;;;;;5.10;2.23;;;;;;;;;;5036342;28;20312;-77
2023/01/19 14:56:24;;;;;;;2.87;2.40;;;;;;;;;;5041032;28;20256;-77
2023/01/19 14:58:58;;;;;;;4.30;2.00;;;;;;;;;;5054471;28;20235;-69
2023/01/19 15:01:27;;;;;;;1.77;1.67;;;;;;;;;;5050465;28;20204;-70
2023/01/19 15:03:55;;;;;;;6.53;2.30;;;;;;;;;;5040871;28;20223;-72
2023/01/19 15:06:23;;;;;;;1.50;1.50;;;;;;;;;;5049923;28;20247;-72